Time;durP1;ratioP1;P1;durP2;ratioP2;P2;SDS_P1;SDS_P2;PMS_P1;PMS_P2;Temp;Humidity;BMP_temperature;BMP_pressure;BME280_temperature;BME280_humidity;BME280_pressure;Samples;Min_cycle;Max_cycle;Signal;HPM_P1;HPM_P2
2021/05/01 00:00:09;;;;;;;59.30;49.05;;;;;;;;;;5076494;28;20720;-95
2021/05/01 00:02:36;;;;;;;60.72;48.08;;;;;;;;;;5076856;28;20310;-95
2021/05/01 00:05:04;;;;;;;59.37;47.60;;;;;;;;;;5076782;28;20203;-95
2021/05/01 00:07:30;;;;;;;59.15;48.78;;;;;;;;;;5076848;28;20540;-96
2021/05/01 00:09:57;;;;;;;59.17;48.63;;;;;;;;;;5076846;28;20188;-95
2021/05/01 00:12:24;;;;;;;65.30;52.00;;;;;;;;;;5077300;28;20207;-95
2021/05/01 00:14:52;;;;;;;60.67;50.58;;;;;;;;;;5076783;28;20199;-94
2021/05/01 00:17:19;;;;;;;66.78;50.78;;;;;;;;;;5076669;28;20199;-95
2021/05/01 00:19:46;;;;;;;67.80;48.75;;;;;;;;;;5058870;28;20225;-95
2021/05/01 00:22:13;;;;;;;62.33;50.40;;;;;;;;;;5076329;28;20200;-94
2021/05/01 00:24:40;;;;;;;53.47;47.05;;;;;;;;;;5058796;28;20213;-95
2021/05/01 00:27:07;;;;;;;54.65;45.67;;;;;;;;;;5076505;28;20191;-95
2021/05/01 00:29:33;;;;;;;60.78;50.05;;;;;;;;;;5076203;28;20590;-96
2021/05/01 00:32:02;;;;;;;63.70;50.97;;;;;;;;;;5076280;28;20222;-95
2021/05/01 00:34:29;;;;;;;57.63;47.13;;;;;;;;;;5076391;28;20193;-95
2021/05/01 00:36:56;;;;;;;54.75;46.47;;;;;;;;;;5075682;28;20241;-95
2021/05/01 00:39:23;;;;;;;61.03;49.47;;;;;;;;;;5075986;28;20221;-96
2021/05/01 00:41:50;;;;;;;65.57;51.17;;;;;;;;;;5075938;28;20191;-95
2021/05/01 00:44:18;;;;;;;60.72;48.20;;;;;;;;;;5075813;28;20189;-95
2021/05/01 00:46:45;;;;;;;59.17;48.83;;;;;;;;;;5075768;28;20191;-95
2021/05/01 00:49:12;;;;;;;62.30;49.90;;;;;;;;;;5075956;28;20194;-95
2021/05/01 00:51:39;;;;;;;55.42;48.03;;;;;;;;;;5076026;28;20186;-96
2021/05/01 00:54:06;;;;;;;50.33;44.92;;;;;;;;;;5075957;28;20200;-95
2021/05/01 00:56:34;;;;;;;53.22;44.08;;;;;;;;;;5075920;28;20225;-94
2021/05/01 00:59:01;;;;;;;56.72;46.47;;;;;;;;;;5075393;28;20226;-95
2021/05/01 01:01:29;;;;;;;52.83;44.88;;;;;;;;;;5075726;28;20190;-95
2021/05/01 01:03:56;;;;;;;51.80;46.15;;;;;;;;;;5075910;28;20194;-95
2021/05/01 01:06:23;;;;;;;57.80;47.47;;;;;;;;;;5075792;28;20252;-95
2021/05/01 01:08:50;;;;;;;56.60;46.13;;;;;;;;;;5075578;28;20303;-95
2021/05/01 01:11:17;;;;;;;61.90;50.95;;;;;;;;;;5075546;28;20183;-95
2021/05/01 01:13:44;;;;;;;58.85;46.17;;;;;;;;;;5075251;28;20257;-95
2021/05/01 01:16:11;;;;;;;57.22;46.55;;;;;;;;;;5075574;28;20228;-96
2021/05/01 01:18:38;;;;;;;50.83;44.08;;;;;;;;;;5075014;28;20210;-95
2021/05/01 01:21:05;;;;;;;55.60;46.35;;;;;;;;;;5075186;28;20620;-95
2021/05/01 01:23:33;;;;;;;52.00;46.40;;;;;;;;;;5075280;28;20244;-95
2021/05/01 01:26:00;;;;;;;54.58;45.05;;;;;;;;;;5075553;28;20190;-96
2021/05/01 01:28:27;;;;;;;52.83;47.03;;;;;;;;;;5075201;28;20200;-95
2021/05/01 01:30:55;;;;;;;51.65;44.28;;;;;;;;;;5075294;28;20194;-96
2021/05/01 01:33:22;;;;;;;54.35;45.92;;;;;;;;;;5075012;28;20193;-95
2021/05/01 01:35:49;;;;;;;51.42;45.83;;;;;;;;;;5075137;28;20189;-95
2021/05/01 01:38:15;;;;;;;53.30;45.85;;;;;;;;;;5074679;28;20236;-96
2021/05/01 01:40:43;;;;;;;51.45;43.58;;;;;;;;;;5074123;28;20222;-95
2021/05/01 01:43:10;;;;;;;46.65;40.58;;;;;;;;;;5074707;28;20316;-95
2021/05/01 01:45:37;;;;;;;50.78;45.30;;;;;;;;;;5075287;28;20246;-95
2021/05/01 01:48:05;;;;;;;51.42;43.60;;;;;;;;;;5057362;28;20202;-95
2021/05/01 01:50:32;;;;;;;48.15;43.00;;;;;;;;;;5080132;28;20201;-95
2021/05/01 01:52:58;;;;;;;47.97;42.80;;;;;;;;;;5079215;28;20200;-96
2021/05/01 01:55:26;;;;;;;46.72;42.03;;;;;;;;;;5074896;28;20196;-94
2021/05/01 01:57:54;;;;;;;45.85;41.20;;;;;;;;;;5074813;28;20235;-95
2021/05/01 02:00:21;;;;;;;48.03;41.20;;;;;;;;;;5074788;28;20219;-94
2021/05/01 02:02:49;;;;;;;45.03;40.13;;;;;;;;;;5074512;28;20185;-94
2021/05/01 02:05:16;;;;;;;46.05;41.42;;;;;;;;;;5057276;28;20202;-94
2021/05/01 02:07:44;;;;;;;44.92;40.15;;;;;;;;;;5074462;28;20713;-94
2021/05/01 02:10:11;;;;;;;46.53;41.65;;;;;;;;;;5074726;28;20189;-95
2021/05/01 02:12:39;;;;;;;49.17;43.90;;;;;;;;;;5074317;28;20190;-94
2021/05/01 02:15:10;;;;;;;47.63;41.35;;;;;;;;;;5074429;28;20196;-95
2021/05/01 02:17:37;;;;;;;47.20;41.60;;;;;;;;;;5074632;28;20223;-94
2021/05/01 02:20:06;;;;;;;46.88;41.70;;;;;;;;;;5074466;28;20226;-94
2021/05/01 02:22:33;;;;;;;45.00;40.40;;;;;;;;;;5074607;28;20202;-94
2021/05/01 02:25:00;;;;;;;49.42;44.13;;;;;;;;;;5074384;28;20212;-94
2021/05/01 02:27:27;;;;;;;43.30;38.95;;;;;;;;;;5074444;28;20194;-94
2021/05/01 02:29:54;;;;;;;45.28;40.15;;;;;;;;;;5074445;28;20198;-95
2021/05/01 02:32:21;;;;;;;43.13;38.60;;;;;;;;;;5074219;28;20190;-94
2021/05/01 02:34:48;;;;;;;41.88;37.55;;;;;;;;;;5074095;28;20226;-94
2021/05/01 02:37:15;;;;;;;46.53;41.60;;;;;;;;;;5074792;28;20240;-94
2021/05/01 02:39:42;;;;;;;47.88;43.03;;;;;;;;;;5074051;28;20228;-94
2021/05/01 02:42:09;;;;;;;42.58;38.13;;;;;;;;;;5074244;28;20218;-94
2021/05/01 02:44:36;;;;;;;43.80;39.30;;;;;;;;;;5074287;28;20207;-94
2021/05/01 02:47:03;;;;;;;45.40;40.80;;;;;;;;;;5073657;28;20209;-94
2021/05/01 02:49:31;;;;;;;44.17;39.50;;;;;;;;;;5074275;28;20186;-94
2021/05/01 02:51:57;;;;;;;45.00;40.30;;;;;;;;;;5074582;28;20272;-94
2021/05/01 02:54:24;;;;;;;45.08;40.42;;;;;;;;;;5078391;28;20190;-94
2021/05/01 02:56:51;;;;;;;46.75;39.65;;;;;;;;;;5078270;28;20213;-94
2021/05/01 02:59:18;;;;;;;44.22;39.83;;;;;;;;;;5077921;28;20210;-94
2021/05/01 03:01:45;;;;;;;46.97;42.03;;;;;;;;;;5077762;28;20190;-94
2021/05/01 03:04:12;;;;;;;43.25;38.75;;;;;;;;;;5077679;28;20190;-94
2021/05/01 03:06:40;;;;;;;43.10;38.75;;;;;;;;;;5077680;28;20188;-94
2021/05/01 03:09:07;;;;;;;42.67;38.58;;;;;;;;;;5043840;28;20201;-95
2021/05/01 03:11:34;;;;;;;42.72;38.70;;;;;;;;;;5059980;28;20200;-94
2021/05/01 03:14:01;;;;;;;44.45;39.83;;;;;;;;;;5077716;28;20631;-94
2021/05/01 03:16:28;;;;;;;46.55;41.60;;;;;;;;;;5078114;28;20191;-94
2021/05/01 03:18:55;;;;;;;43.72;39.33;;;;;;;;;;5077590;28;20218;-94
2021/05/01 03:21:22;;;;;;;46.45;41.25;;;;;;;;;;5077737;28;20197;-94
2021/05/01 03:23:50;;;;;;;46.88;42.17;;;;;;;;;;5077261;28;20203;-94
2021/05/01 03:26:19;;;;;;;40.85;36.95;;;;;;;;;;5077432;28;20197;-94
2021/05/01 03:28:46;;;;;;;46.33;41.40;;;;;;;;;;5060435;28;20588;-94
2021/05/01 03:31:13;;;;;;;45.70;40.83;;;;;;;;;;5077740;28;20194;-95
2021/05/01 03:33:40;;;;;;;42.35;38.17;;;;;;;;;;5059167;28;20208;-94
2021/05/01 03:36:08;;;;;;;42.60;38.20;;;;;;;;;;5077448;28;20191;-95
2021/05/01 03:38:35;;;;;;;43.08;38.72;;;;;;;;;;5076847;28;20293;-94
2021/05/01 03:41:04;;;;;;;42.92;38.42;;;;;;;;;;5076928;28;20194;-94
2021/05/01 03:43:31;;;;;;;43.30;38.85;;;;;;;;;;5077058;28;20308;-94
2021/05/01 03:45:58;;;;;;;45.22;40.67;;;;;;;;;;5077253;28;20199;-94
2021/05/01 03:48:25;;;;;;;44.35;39.38;;;;;;;;;;5076981;28;20644;-94
2021/05/01 03:50:52;;;;;;;41.88;37.83;;;;;;;;;;5076757;28;20203;-95
2021/05/01 03:53:21;;;;;;;41.60;37.33;;;;;;;;;;5077040;28;20199;-94
2021/05/01 03:55:48;;;;;;;44.17;39.60;;;;;;;;;;5059224;28;20247;-94
2021/05/01 03:58:16;;;;;;;46.05;41.35;;;;;;;;;;5076677;28;20226;-94
2021/05/01 04:00:43;;;;;;;42.85;38.47;;;;;;;;;;5059603;28;20279;-94
2021/05/01 04:03:09;;;;;;;42.60;38.40;;;;;;;;;;5076737;28;20294;-94
2021/05/01 04:05:36;;;;;;;43.65;39.20;;;;;;;;;;5075866;28;20197;-95
2021/05/01 04:08:03;;;;;;;43.17;38.88;;;;;;;;;;5076705;28;20672;-94
2021/05/01 04:10:31;;;;;;;43.55;39.22;;;;;;;;;;5077145;28;20190;-96
2021/05/01 04:12:57;;;;;;;43.20;39.00;;;;;;;;;;5058981;28;20193;-96
2021/05/01 04:15:25;;;;;;;42.45;38.50;;;;;;;;;;5076781;28;20191;-96
2021/05/01 04:17:53;;;;;;;43.50;39.05;;;;;;;;;;5075560;28;20540;-96
2021/05/01 04:20:20;;;;;;;43.78;39.50;;;;;;;;;;5076496;28;20228;-96
2021/05/01 04:22:47;;;;;;;45.00;40.20;;;;;;;;;;5076779;28;20209;-96
2021/05/01 04:25:14;;;;;;;41.83;37.83;;;;;;;;;;5076327;28;20201;-96
2021/05/01 04:27:41;;;;;;;43.47;39.13;;;;;;;;;;5076360;28;20201;-96
2021/05/01 04:30:08;;;;;;;44.80;40.25;;;;;;;;;;5076560;28;20190;-96
2021/05/01 04:32:36;;;;;;;44.10;39.80;;;;;;;;;;5076194;28;20217;-96
2021/05/01 04:35:04;;;;;;;42.40;38.10;;;;;;;;;;5076105;28;20194;-96
2021/05/01 04:37:31;;;;;;;43.45;39.10;;;;;;;;;;5075833;28;20239;-96
2021/05/01 04:39:58;;;;;;;44.70;40.00;;;;;;;;;;5075635;28;20249;-96
2021/05/01 04:42:25;;;;;;;44.42;40.03;;;;;;;;;;5058933;28;20443;-96
2021/05/01 04:44:52;;;;;;;42.37;38.27;;;;;;;;;;5076202;28;20191;-96
2021/05/01 04:47:19;;;;;;;44.63;39.97;;;;;;;;;;5076064;28;20527;-91
2021/05/01 04:49:47;;;;;;;42.72;38.38;;;;;;;;;;5076105;28;20210;-91
2021/05/01 04:52:14;;;;;;;45.40;40.70;;;;;;;;;;5075692;28;20199;-90
2021/05/01 04:54:41;;;;;;;43.45;39.17;;;;;;;;;;5055376;28;20253;-84
2021/05/01 04:57:08;;;;;;;43.92;39.63;;;;;;;;;;5040865;28;20200;-89
2021/05/01 04:59:35;;;;;;;43.50;39.22;;;;;;;;;;5074994;28;20221;-92
2021/05/01 05:02:01;;;;;;;44.75;40.25;;;;;;;;;;5075178;28;20312;-90
2021/05/01 05:04:28;;;;;;;44.78;40.28;;;;;;;;;;5075198;28;20621;-95
2021/05/01 05:06:56;;;;;;;43.72;39.20;;;;;;;;;;5075397;28;20202;-96
2021/05/01 05:09:23;;;;;;;43.50;39.30;;;;;;;;;;5075247;28;20202;-95
2021/05/01 05:11:50;;;;;;;43.70;39.10;;;;;;;;;;5074765;28;20191;-92
2021/05/01 05:14:17;;;;;;;44.92;40.03;;;;;;;;;;5074772;28;20633;-91
2021/05/01 05:16:44;;;;;;;43.80;39.60;;;;;;;;;;5074270;28;20190;-91
2021/05/01 05:19:11;;;;;;;45.17;40.67;;;;;;;;;;5075495;28;20479;-95
2021/05/01 05:21:37;;;;;;;47.47;42.40;;;;;;;;;;5075431;28;20192;-95
2021/05/01 05:24:07;;;;;;;46.75;42.10;;;;;;;;;;5075053;28;20467;-93
2021/05/01 05:26:34;;;;;;;48.20;43.05;;;;;;;;;;5057628;28;20211;-93
2021/05/01 05:29:00;;;;;;;48.95;43.88;;;;;;;;;;5075346;28;20241;-92
2021/05/01 05:31:27;;;;;;;47.03;42.08;;;;;;;;;;5075006;28;20213;-92
2021/05/01 05:33:54;;;;;;;51.25;45.88;;;;;;;;;;5075193;28;20217;-92
2021/05/01 05:36:21;;;;;;;45.83;41.08;;;;;;;;;;5074887;28;20192;-92
2021/05/01 05:38:48;;;;;;;47.25;42.25;;;;;;;;;;5074959;28;20289;-95
2021/05/01 05:41:16;;;;;;;49.58;44.53;;;;;;;;;;5075671;28;20674;-95
2021/05/01 05:43:43;;;;;;;51.95;46.55;;;;;;;;;;5074503;28;20219;-94
2021/05/01 05:46:14;;;;;;;52.35;46.75;;;;;;;;;;5057430;28;20210;-95
2021/05/01 05:48:41;;;;;;;53.45;48.03;;;;;;;;;;5074893;28;20216;-93
2021/05/01 05:51:08;;;;;;;54.25;48.35;;;;;;;;;;5073455;28;20185;-94
2021/05/01 05:53:35;;;;;;;51.25;45.70;;;;;;;;;;5074625;28;20559;-94
2021/05/01 05:56:02;;;;;;;51.97;46.47;;;;;;;;;;5074704;28;20199;-94
2021/05/01 05:58:30;;;;;;;52.22;46.70;;;;;;;;;;5074433;28;20209;-94
2021/05/01 06:00:57;;;;;;;56.08;50.13;;;;;;;;;;5073866;28;20219;-92
2021/05/01 06:03:24;;;;;;;55.65;49.65;;;;;;;;;;5074443;28;20188;-93
2021/05/01 06:05:53;;;;;;;56.15;47.80;;;;;;;;;;5074745;28;20214;-94
2021/05/01 06:08:20;;;;;;;51.83;46.35;;;;;;;;;;5075420;28;20188;-94
2021/05/01 06:10:47;;;;;;;51.83;46.20;;;;;;;;;;5074602;28;20200;-94
2021/05/01 06:13:15;;;;;;;52.28;46.70;;;;;;;;;;5074608;28;20190;-92
2021/05/01 06:15:43;;;;;;;48.03;43.20;;;;;;;;;;5074670;28;20595;-94
2021/05/01 06:18:13;;;;;;;52.88;47.17;;;;;;;;;;5074639;28;20441;-94
2021/05/01 06:20:40;;;;;;;50.83;45.27;;;;;;;;;;5074342;28;20742;-93
2021/05/01 06:23:07;;;;;;;55.13;48.90;;;;;;;;;;5074362;28;20404;-92
2021/05/01 06:25:35;;;;;;;53.00;47.30;;;;;;;;;;5074595;28;20427;-92
2021/05/01 06:28:02;;;;;;;56.60;48.58;;;;;;;;;;5074215;28;20199;-93
2021/05/01 06:30:29;;;;;;;53.27;47.60;;;;;;;;;;5074509;28;20194;-92
2021/05/01 06:33:02;;;;;;;55.73;48.37;;;;;;;;;;5074313;28;20409;-93
2021/05/01 06:35:29;;;;;;;59.70;52.30;;;;;;;;;;5074156;28;20447;-93
2021/05/01 06:37:56;;;;;;;60.20;51.27;;;;;;;;;;5073860;28;20538;-92
2021/05/01 06:40:30;;;;;;;63.03;51.07;;;;;;;;;;5074239;28;20508;-92
2021/05/01 06:43:00;;;;;;;59.00;48.90;;;;;;;;;;5074113;28;20511;-92
2021/05/01 06:45:27;;;;;;;69.23;50.70;;;;;;;;;;5074320;28;20423;-92
2021/05/01 06:47:55;;;;;;;75.27;56.57;;;;;;;;;;5074344;28;20441;-91
2021/05/01 06:50:23;;;;;;;67.00;53.47;;;;;;;;;;5074325;28;20908;-92
2021/05/01 06:52:50;;;;;;;71.60;53.67;;;;;;;;;;5074137;28;20413;-92
2021/05/01 06:55:18;;;;;;;70.10;55.60;;;;;;;;;;5073851;28;20436;-91
2021/05/01 06:57:46;;;;;;;63.37;53.83;;;;;;;;;;5074898;28;20471;-91
2021/05/01 07:00:14;;;;;;;68.77;56.87;;;;;;;;;;5073988;28;20513;-91
2021/05/01 07:02:43;;;;;;;66.10;54.17;;;;;;;;;;5074432;28;20440;-90
2021/05/01 07:05:11;;;;;;;69.93;56.47;;;;;;;;;;5056617;28;20777;-89
2021/05/01 07:07:39;;;;;;;61.27;54.47;;;;;;;;;;5073994;28;20437;-88
2021/05/01 07:10:06;;;;;;;65.67;52.80;;;;;;;;;;5074189;28;20424;-91
2021/05/01 07:12:33;;;;;;;60.83;51.00;;;;;;;;;;5073030;28;20452;-89
2021/05/01 07:15:03;;;;;;;68.37;53.43;;;;;;;;;;5073270;28;20510;-88
2021/05/01 07:17:30;;;;;;;65.15;57.30;;;;;;;;;;5073159;28;20927;-88
2021/05/01 07:19:59;;;;;;;61.40;51.57;;;;;;;;;;5073312;28;20230;-86
2021/05/01 07:22:26;;;;;;;57.17;49.20;;;;;;;;;;5073536;28;20423;-86
2021/05/01 07:24:53;;;;;;;68.37;51.53;;;;;;;;;;5072486;28;20902;-88
2021/05/01 07:27:21;;;;;;;56.87;50.63;;;;;;;;;;5073431;28;20740;-88
2021/05/01 07:29:49;;;;;;;56.90;49.20;;;;;;;;;;5073499;28;20420;-89
2021/05/01 07:32:17;;;;;;;57.00;50.97;;;;;;;;;;5073463;28;20441;-88
2021/05/01 07:34:49;;;;;;;53.97;48.20;;;;;;;;;;5073766;28;20458;-89
2021/05/01 07:37:18;;;;;;;57.50;51.13;;;;;;;;;;5052796;28;20775;-88
2021/05/01 07:39:49;;;;;;;52.27;46.77;;;;;;;;;;5055545;28;20452;-93
2021/05/01 07:42:17;;;;;;;53.50;47.70;;;;;;;;;;5056271;28;20476;-83
2021/05/01 07:44:45;;;;;;;46.70;42.10;;;;;;;;;;5058420;28;20487;-87
2021/05/01 07:47:12;;;;;;;48.27;43.57;;;;;;;;;;5057767;28;20408;-84
2021/05/01 07:49:40;;;;;;;45.95;41.50;;;;;;;;;;5058632;28;20428;-83
2021/05/01 07:52:07;;;;;;;47.03;42.17;;;;;;;;;;5058012;28;20195;-84
2021/05/01 07:54:39;;;;;;;46.43;41.63;;;;;;;;;;5057226;28;20507;-84
2021/05/01 07:57:06;;;;;;;46.07;41.00;;;;;;;;;;5056984;28;20428;-86
2021/05/01 07:59:34;;;;;;;45.80;41.40;;;;;;;;;;5055693;28;20460;-82
2021/05/01 08:02:00;;;;;;;44.07;39.80;;;;;;;;;;5056427;28;20413;-79
2021/05/01 08:04:27;;;;;;;40.10;36.33;;;;;;;;;;5056325;28;20500;-81
2021/05/01 08:06:54;;;;;;;42.70;38.63;;;;;;;;;;5054753;28;20424;-81
2021/05/01 08:09:21;;;;;;;42.63;38.73;;;;;;;;;;5055893;28;20430;-83
2021/05/01 08:11:48;;;;;;;42.53;38.33;;;;;;;;;;5056332;28;20456;-82
2021/05/01 08:14:15;;;;;;;43.30;39.10;;;;;;;;;;5055954;28;20495;-84
2021/05/01 08:16:43;;;;;;;45.07;40.87;;;;;;;;;;5056072;28;20412;-83
2021/05/01 08:19:10;;;;;;;45.17;41.07;;;;;;;;;;5055702;28;20409;-79
2021/05/01 08:21:37;;;;;;;42.00;38.10;;;;;;;;;;5055607;28;20416;-82
2021/05/01 08:24:04;;;;;;;39.37;35.30;;;;;;;;;;5055705;28;20441;-81
2021/05/01 08:26:31;;;;;;;44.97;40.33;;;;;;;;;;5055731;28;20453;-82
2021/05/01 08:28:59;;;;;;;44.30;40.00;;;;;;;;;;5055519;28;20448;-81
2021/05/01 08:31:27;;;;;;;42.47;38.13;;;;;;;;;;5055560;28;20906;-89
2021/05/01 08:33:55;;;;;;;43.37;39.37;;;;;;;;;;5056417;28;20420;-90
2021/05/01 08:36:22;;;;;;;41.70;37.80;;;;;;;;;;5050536;28;20413;-87
2021/05/01 08:38:48;;;;;;;45.63;41.33;;;;;;;;;;5072330;28;20463;-87
2021/05/01 08:41:15;;;;;;;42.53;38.47;;;;;;;;;;5075545;28;20502;-92
2021/05/01 08:43:42;;;;;;;44.63;40.53;;;;;;;;;;5058377;28;20412;-92
2021/05/01 08:46:13;;;;;;;45.77;41.60;;;;;;;;;;5076772;28;20451;-91
2021/05/01 08:48:43;;;;;;;44.67;40.57;;;;;;;;;;5075882;28;20495;-92
2021/05/01 08:51:11;;;;;;;45.20;40.90;;;;;;;;;;5076045;28;20411;-92
2021/05/01 08:53:39;;;;;;;45.07;40.57;;;;;;;;;;5077310;28;20451;-83
2021/05/01 08:56:06;;;;;;;44.63;40.43;;;;;;;;;;5076296;28;20438;-92
2021/05/01 08:58:33;;;;;;;44.20;40.17;;;;;;;;;;5059391;28;20427;-93
2021/05/01 09:01:00;;;;;;;45.13;41.00;;;;;;;;;;5073802;28;20464;-93
2021/05/01 09:03:27;;;;;;;46.37;42.20;;;;;;;;;;5073082;28;20426;-94
2021/05/01 09:05:55;;;;;;;46.90;42.50;;;;;;;;;;5075530;28;20429;-93
2021/05/01 09:08:23;;;;;;;44.03;40.07;;;;;;;;;;5075692;28;20417;-91
2021/05/01 09:10:51;;;;;;;46.13;41.87;;;;;;;;;;5075296;28;20453;-92
2021/05/01 09:13:19;;;;;;;46.30;41.67;;;;;;;;;;5075171;28;20927;-94
2021/05/01 09:15:55;;;;;;;44.13;40.10;;;;;;;;;;5075273;28;20431;-93
2021/05/01 09:18:22;;;;;;;48.10;43.50;;;;;;;;;;5075549;28;20443;-94
2021/05/01 09:20:49;;;;;;;43.90;39.40;;;;;;;;;;5075131;28;20460;-93
2021/05/01 09:23:16;;;;;;;45.30;40.70;;;;;;;;;;5075476;28;20423;-93
2021/05/01 09:25:57;;;;;;;45.53;41.17;;;;;;;;;;5075399;28;20471;-94
2021/05/01 09:28:24;;;;;;;46.83;42.43;;;;;;;;;;5075011;28;20440;-94
2021/05/01 09:31:09;;;;;;;44.47;40.17;;;;;;;;;;5075030;28;20900;-93
2021/05/01 09:33:36;;;;;;;45.03;40.67;;;;;;;;;;5074677;28;20441;-93
2021/05/01 09:36:05;;;;;;;45.67;41.27;;;;;;;;;;5074795;28;20454;-93
2021/05/01 09:38:33;;;;;;;47.93;43.30;;;;;;;;;;5074721;28;20480;-93
2021/05/01 09:41:07;;;;;;;48.73;44.20;;;;;;;;;;5074649;28;20491;-93
2021/05/01 09:43:33;;;;;;;44.90;40.43;;;;;;;;;;5075155;28;20447;-93
2021/05/01 09:46:00;;;;;;;42.47;38.57;;;;;;;;;;5074807;28;20448;-93
2021/05/01 09:48:27;;;;;;;46.33;42.03;;;;;;;;;;5074942;28;20436;-92
2021/05/01 09:51:04;;;;;;;46.30;42.00;;;;;;;;;;5074577;28;20457;-92
2021/05/01 09:53:32;;;;;;;47.23;42.10;;;;;;;;;;5074600;28;20873;-86
2021/05/01 09:55:59;;;;;;;46.33;41.70;;;;;;;;;;5073706;28;20411;-85
2021/05/01 09:58:28;;;;;;;49.33;44.10;;;;;;;;;;5074543;28;20419;-85
2021/05/01 10:01:12;;;;;;;46.87;42.13;;;;;;;;;;5074530;28;20899;-87
2021/05/01 10:03:39;;;;;;;42.90;38.93;;;;;;;;;;5074669;28;20433;-81
2021/05/01 10:06:07;;;;;;;43.50;39.37;;;;;;;;;;5074653;28;20474;-91
2021/05/01 10:08:34;;;;;;;46.33;42.13;;;;;;;;;;5074377;28;21066;-78
2021/05/01 10:11:08;;;;;;;41.00;37.00;;;;;;;;;;5074302;28;20441;-87
2021/05/01 10:13:47;;;;;;;45.77;41.10;;;;;;;;;;5074501;28;20431;-87
2021/05/01 10:16:14;;;;;;;46.10;41.77;;;;;;;;;;5056719;28;20972;-89
2021/05/01 10:18:56;;;;;;;45.10;41.00;;;;;;;;;;5074124;28;20437;-86
2021/05/01 10:21:26;;;;;;;44.60;40.50;;;;;;;;;;5073863;28;20504;-86
2021/05/01 10:23:54;;;;;;;45.03;40.83;;;;;;;;;;5074116;28;20423;-86
2021/05/01 10:26:20;;;;;;;47.40;43.30;;;;;;;;;;5074695;28;20413;-85
2021/05/01 10:28:50;;;;;;;42.57;38.63;;;;;;;;;;5074732;28;20415;-85
2021/05/01 10:31:19;;;;;;;43.90;40.07;;;;;;;;;;5074601;28;20420;-85
2021/05/01 10:33:46;;;;;;;43.07;39.17;;;;;;;;;;5074047;28;20582;-86
2021/05/01 10:36:16;;;;;;;44.30;40.30;;;;;;;;;;5074039;28;20423;-86
2021/05/01 10:38:43;;;;;;;46.07;41.70;;;;;;;;;;5074226;28;20492;-85
2021/05/01 10:41:16;;;;;;;45.27;41.10;;;;;;;;;;5074042;28;20477;-85
2021/05/01 10:43:49;;;;;;;47.00;42.77;;;;;;;;;;5073890;28;20941;-86
2021/05/01 10:46:23;;;;;;;42.50;38.80;;;;;;;;;;5074478;28;20899;-84
2021/05/01 10:48:50;;;;;;;44.83;40.63;;;;;;;;;;5074396;28;20412;-87
2021/05/01 10:51:18;;;;;;;45.43;41.20;;;;;;;;;;5056602;28;20499;-81
2021/05/01 10:53:48;;;;;;;44.57;40.70;;;;;;;;;;5073893;28;20433;-88
2021/05/01 10:56:15;;;;;;;46.83;42.53;;;;;;;;;;5074371;28;20923;-96
2021/05/01 10:58:43;;;;;;;44.87;41.07;;;;;;;;;;5056620;28;20531;-96
2021/05/01 11:01:11;;;;;;;46.43;42.43;;;;;;;;;;5074172;28;20470;-96
2021/05/01 11:03:47;;;;;;;46.07;42.23;;;;;;;;;;5075339;28;20420;-96
2021/05/01 11:06:21;;;;;;;45.03;41.40;;;;;;;;;;5075407;28;20784;-96
2021/05/01 11:08:51;;;;;;;45.43;41.20;;;;;;;;;;5074476;28;20416;-96
2021/05/01 11:11:19;;;;;;;44.93;40.90;;;;;;;;;;5074398;28;20439;-96
2021/05/01 11:13:52;;;;;;;44.27;40.40;;;;;;;;;;5074160;28;20443;-96
2021/05/01 11:16:19;;;;;;;44.50;40.53;;;;;;;;;;5078134;28;20456;-96
2021/05/01 11:18:49;;;;;;;44.20;40.53;;;;;;;;;;5077913;28;20480;-96
2021/05/01 11:21:17;;;;;;;47.90;43.60;;;;;;;;;;5077500;28;20551;-96
2021/05/01 11:23:44;;;;;;;47.50;42.90;;;;;;;;;;5078108;28;20412;-96
2021/05/01 11:26:11;;;;;;;46.40;42.40;;;;;;;;;;5077291;28;20935;-95
2021/05/01 11:28:39;;;;;;;47.20;42.97;;;;;;;;;;5079544;28;20423;-96
2021/05/01 11:31:06;;;;;;;43.60;39.77;;;;;;;;;;5077934;28;20449;-96
2021/05/01 11:33:34;;;;;;;44.40;40.63;;;;;;;;;;5078234;28;20464;-95
2021/05/01 11:36:02;;;;;;;45.23;41.37;;;;;;;;;;5077355;28;20442;-92
2021/05/01 11:38:33;;;;;;;42.67;39.13;;;;;;;;;;5076856;28;20459;-93
2021/05/01 11:41:00;;;;;;;45.00;40.80;;;;;;;;;;5076987;28;20465;-92
2021/05/01 11:43:28;;;;;;;46.40;42.43;;;;;;;;;;5076992;28;20466;-96
2021/05/01 11:46:11;;;;;;;43.60;39.83;;;;;;;;;;5077148;28;20412;-95
2021/05/01 11:48:47;;;;;;;47.30;42.97;;;;;;;;;;5077383;28;20430;-96
2021/05/01 11:51:17;;;;;;;42.90;39.40;;;;;;;;;;5077290;28;20946;-95
2021/05/01 11:53:46;;;;;;;43.20;39.80;;;;;;;;;;5077429;28;20408;-96
2021/05/01 11:56:21;;;;;;;43.17;39.60;;;;;;;;;;5077311;28;21212;-96
2021/05/01 11:58:49;;;;;;;44.13;40.33;;;;;;;;;;5077676;28;20422;-96
2021/05/01 12:01:18;;;;;;;42.50;38.87;;;;;;;;;;5059369;28;20501;-96
2021/05/01 12:03:54;;;;;;;44.40;40.60;;;;;;;;;;5059693;28;20428;-95
2021/05/01 12:06:27;;;;;;;42.53;39.27;;;;;;;;;;5077162;28;20437;-95
2021/05/01 12:08:56;;;;;;;43.87;39.93;;;;;;;;;;5077022;28;20438;-95
2021/05/01 12:11:23;;;;;;;41.13;38.03;;;;;;;;;;5077110;28;20438;-96
2021/05/01 12:13:52;;;;;;;43.47;39.90;;;;;;;;;;5076824;28;20444;-96
2021/05/01 12:16:21;;;;;;;39.43;36.23;;;;;;;;;;5059348;28;20453;-96
2021/05/01 12:18:49;;;;;;;40.00;37.00;;;;;;;;;;5076423;28;20572;-96
2021/05/01 12:21:16;;;;;;;40.37;37.13;;;;;;;;;;5076559;28;20506;-95
2021/05/01 12:23:45;;;;;;;42.70;39.00;;;;;;;;;;5076784;28;20430;-96
2021/05/01 12:26:26;;;;;;;42.37;39.07;;;;;;;;;;5075894;28;20886;-96
2021/05/01 12:28:53;;;;;;;41.73;38.43;;;;;;;;;;5075616;28;20457;-95
2021/05/01 12:31:40;;;;;;;39.93;36.93;;;;;;;;;;5076617;28;20442;-96
2021/05/01 12:34:08;;;;;;;40.77;37.57;;;;;;;;;;5077108;28;20888;-96
2021/05/01 12:36:40;;;;;;;41.20;38.17;;;;;;;;;;5076284;28;20449;-95
2021/05/01 12:39:09;;;;;;;39.63;36.57;;;;;;;;;;5075965;28;20492;-95
2021/05/01 12:41:37;;;;;;;42.40;38.67;;;;;;;;;;5075808;28;20498;-95
2021/05/01 12:44:04;;;;;;;40.40;37.23;;;;;;;;;;5058556;28;20438;-95
2021/05/01 12:46:52;;;;;;;39.97;36.60;;;;;;;;;;5058568;28;20793;-95
2021/05/01 12:49:24;;;;;;;38.30;35.43;;;;;;;;;;5076037;28;20443;-94
2021/05/01 12:51:58;;;;;;;34.90;32.40;;;;;;;;;;5076206;28;20787;-95
2021/05/01 12:54:28;;;;;;;36.30;33.30;;;;;;;;;;5075934;28;20965;-95
2021/05/01 12:56:56;;;;;;;34.20;31.43;;;;;;;;;;5076313;28;20537;-94
2021/05/01 12:59:27;;;;;;;35.03;32.37;;;;;;;;;;5075493;28;20422;-96
2021/05/01 13:02:09;;;;;;;36.40;33.63;;;;;;;;;;5076020;28;20519;-96
2021/05/01 13:04:38;;;;;;;37.13;34.43;;;;;;;;;;5063951;28;20420;-96
2021/05/01 13:07:06;;;;;;;36.03;32.83;;;;;;;;;;5075987;28;20437;-95
2021/05/01 13:09:36;;;;;;;36.63;34.03;;;;;;;;;;5075864;28;20420;-91
2021/05/01 13:12:03;;;;;;;35.13;32.50;;;;;;;;;;5076745;28;20930;-96
2021/05/01 13:14:30;;;;;;;36.40;33.80;;;;;;;;;;5059383;28;20412;-96
2021/05/01 13:17:09;;;;;;;34.33;31.60;;;;;;;;;;5075892;28;20442;-95
2021/05/01 13:19:57;;;;;;;36.57;33.60;;;;;;;;;;5075814;28;20915;-92
2021/05/01 13:22:25;;;;;;;36.83;34.03;;;;;;;;;;5075757;28;20420;-95
2021/05/01 13:25:07;;;;;;;33.10;30.70;;;;;;;;;;5076616;28;20405;-93
2021/05/01 13:27:34;;;;;;;32.70;30.40;;;;;;;;;;5083610;28;20424;-96
2021/05/01 13:30:02;;;;;;;32.00;29.90;;;;;;;;;;5087303;28;20433;-95
2021/05/01 13:32:29;;;;;;;32.77;30.47;;;;;;;;;;5075112;28;20421;-90
2021/05/01 13:34:59;;;;;;;32.57;30.27;;;;;;;;;;5075215;28;20412;-95
2021/05/01 13:37:26;;;;;;;32.97;30.80;;;;;;;;;;5072931;28;20448;-85
2021/05/01 13:39:53;;;;;;;33.20;30.90;;;;;;;;;;5073492;28;20481;-79
2021/05/01 13:42:21;;;;;;;33.63;31.20;;;;;;;;;;5073449;28;20469;-80
2021/05/01 13:44:49;;;;;;;33.33;31.13;;;;;;;;;;5073850;28;20417;-80
2021/05/01 13:47:20;;;;;;;32.83;30.40;;;;;;;;;;5073933;28;20421;-80
2021/05/01 13:49:48;;;;;;;32.43;29.93;;;;;;;;;;5072958;28;20427;-79
2021/05/01 13:52:24;;;;;;;31.80;29.60;;;;;;;;;;5073521;28;20471;-78
2021/05/01 13:54:51;;;;;;;32.97;30.57;;;;;;;;;;5073703;28;20442;-79
2021/05/01 13:57:18;;;;;;;33.30;30.70;;;;;;;;;;5056106;28;20423;-78
2021/05/01 13:59:45;;;;;;;33.00;30.60;;;;;;;;;;5073616;28;20447;-78
2021/05/01 14:02:13;;;;;;;33.37;31.07;;;;;;;;;;5073019;28;20421;-78
2021/05/01 14:04:43;;;;;;;32.10;30.00;;;;;;;;;;5073798;28;20400;-78
2021/05/01 14:07:10;;;;;;;31.03;29.03;;;;;;;;;;5073650;28;20805;-79
2021/05/01 14:09:38;;;;;;;32.27;30.07;;;;;;;;;;5073956;28;20511;-78
2021/05/01 14:12:08;;;;;;;31.73;29.63;;;;;;;;;;5073921;28;20440;-78
2021/05/01 14:14:38;;;;;;;31.17;28.97;;;;;;;;;;5074186;28;20454;-79
2021/05/01 14:17:06;;;;;;;31.27;29.07;;;;;;;;;;5074319;28;20397;-78
2021/05/01 14:19:33;;;;;;;30.50;28.40;;;;;;;;;;5073633;28;20532;-78
2021/05/01 14:22:00;;;;;;;31.43;29.00;;;;;;;;;;5074970;28;20481;-79